createdAt,value
2022-11-15T00:01:58.924Z,17.65
2022-11-15T00:04:25.235Z,17.60
2022-11-15T00:06:51.538Z,17.55
2022-11-15T00:09:17.791Z,17.33
2022-11-15T00:11:44.089Z,17.55
2022-11-15T00:14:10.419Z,16.98
2022-11-15T00:16:36.669Z,18.25
2022-11-15T00:19:03.107Z,17.85
2022-11-15T00:21:29.386Z,18.70
2022-11-15T00:23:55.649Z,18.88
2022-11-15T00:26:21.953Z,18.77
2022-11-15T00:28:48.214Z,18.60
2022-11-15T00:31:15.292Z,20.20
2022-11-15T00:33:43.737Z,20.02
2022-11-15T00:36:10.578Z,21.17
2022-11-15T00:38:37.913Z,20.30
2022-11-15T00:41:09.078Z,20.10
2022-11-15T00:43:36.171Z,22.20
2022-11-15T00:46:03.263Z,21.25
2022-11-15T00:48:29.617Z,23.70
2022-11-15T00:50:55.875Z,22.40
2022-11-15T00:53:22.154Z,21.80
2022-11-15T00:55:48.372Z,22.67
2022-11-15T00:58:14.604Z,22.73
2022-11-15T01:00:40.958Z,22.83
2022-11-15T01:03:07.599Z,22.60
2022-11-15T01:05:33.900Z,23.60
2022-11-15T01:08:00.184Z,22.65
2022-11-15T01:10:26.837Z,23.33
2022-11-15T01:12:53.127Z,23.13
2022-11-15T01:15:19.423Z,23.67
2022-11-15T01:17:45.696Z,23.27
2022-11-15T01:20:12.678Z,22.17
2022-11-15T01:22:38.999Z,21.98
2022-11-15T01:25:05.428Z,24.15
2022-11-15T01:27:31.760Z,23.15
2022-11-15T01:29:57.996Z,24.63
2022-11-15T01:32:24.290Z,25.50
2022-11-15T01:34:50.546Z,25.08
2022-11-15T01:37:16.800Z,24.60
2022-11-15T01:39:43.587Z,23.38
2022-11-15T01:42:13.669Z,23.98
2022-11-15T01:44:44.832Z,23.33
2022-11-15T01:47:16.540Z,24.27
2022-11-15T01:50:00.279Z,25.25
2022-11-15T01:52:28.437Z,23.42
2022-11-15T01:54:57.436Z,23.23
2022-11-15T01:57:23.725Z,24.05
2022-11-15T01:59:49.987Z,23.92
2022-11-15T02:02:16.422Z,24.52
2022-11-15T02:04:44.085Z,24.85
2022-11-15T02:07:12.082Z,24.98
2022-11-15T02:09:39.325Z,23.60
2022-11-15T02:12:06.762Z,25.33
2022-11-15T02:14:33.320Z,25.00
2022-11-15T02:17:03.366Z,23.60
2022-11-15T02:19:39.448Z,25.27
2022-11-15T02:22:08.512Z,24.40
2022-11-15T02:24:55.024Z,23.15
2022-11-15T02:27:21.248Z,26.30
2022-11-15T02:29:50.284Z,23.98
2022-11-15T02:32:21.624Z,26.60
2022-11-15T02:34:51.027Z,25.23
2022-11-15T02:37:27.211Z,25.42
2022-11-15T02:40:11.969Z,24.92
2022-11-15T02:43:04.445Z,27.45
2022-11-15T02:45:37.970Z,26.75
2022-11-15T02:48:04.840Z,26.38
2022-11-15T02:50:32.697Z,27.63
2022-11-15T02:52:58.987Z,26.65
2022-11-15T02:55:35.500Z,26.77
2022-11-15T02:58:10.745Z,26.52
2022-11-15T03:00:40.907Z,24.23
2022-11-15T03:03:26.046Z,27.30
2022-11-15T03:05:55.423Z,28.63
2022-11-15T03:08:40.770Z,27.17
2022-11-15T03:11:07.031Z,27.45
2022-11-15T03:13:36.095Z,27.98
2022-11-15T03:16:08.862Z,28.67
2022-11-15T03:18:38.115Z,27.60
2022-11-15T03:21:06.452Z,28.70
2022-11-15T03:23:33.555Z,29.58
2022-11-15T03:26:01.495Z,28.80
2022-11-15T03:28:37.228Z,27.85
2022-11-15T03:31:24.834Z,31.30
2022-11-15T03:33:52.663Z,30.65
2022-11-15T03:36:19.177Z,30.42
2022-11-15T03:38:45.704Z,28.13
2022-11-15T03:41:24.392Z,27.77
2022-11-15T03:43:58.375Z,26.08
2022-11-15T03:46:26.971Z,29.85
2022-11-15T03:48:57.439Z,29.42
2022-11-15T03:51:23.861Z,29.02
2022-11-15T03:53:50.195Z,28.30
2022-11-15T03:56:16.471Z,29.02
2022-11-15T03:58:42.750Z,28.65
2022-11-15T04:01:09.120Z,30.05
2022-11-15T04:03:35.437Z,28.25
2022-11-15T04:06:01.702Z,30.50
2022-11-15T04:08:27.974Z,28.20
2022-11-15T04:10:54.254Z,28.90
2022-11-15T04:13:20.508Z,30.00
2022-11-15T04:15:46.772Z,29.77
2022-11-15T04:18:13.047Z,27.75
2022-11-15T04:20:58.224Z,30.40
2022-11-15T04:23:43.090Z,27.95
2022-11-15T04:26:11.824Z,28.08
2022-11-15T04:29:00.907Z,27.13
2022-11-15T04:31:27.521Z,27.70
2022-11-15T04:33:53.954Z,29.55
2022-11-15T04:36:39.342Z,28.10
2022-11-15T04:39:05.561Z,27.40
2022-11-15T04:41:31.816Z,28.80
2022-11-15T04:43:58.150Z,29.00
2022-11-15T04:46:25.139Z,27.80
2022-11-15T04:48:56.962Z,27.58
2022-11-15T04:51:24.758Z,28.95
2022-11-15T04:53:51.052Z,28.48
2022-11-15T04:56:17.294Z,27.92
2022-11-15T04:58:43.681Z,27.73
2022-11-15T05:01:11.089Z,28.13
2022-11-15T05:03:56.411Z,29.15
2022-11-15T05:06:22.749Z,28.35
2022-11-15T05:08:49.255Z,27.40
2022-11-15T05:11:15.507Z,27.35
2022-11-15T05:13:41.911Z,27.23
2022-11-15T05:16:08.242Z,27.02
2022-11-15T05:18:34.480Z,28.95
2022-11-15T05:21:04.371Z,25.33
2022-11-15T05:23:30.945Z,24.77
2022-11-15T05:26:03.920Z,26.63
2022-11-15T05:28:34.591Z,25.05
2022-11-15T05:31:04.728Z,26.63
2022-11-15T05:33:31.857Z,25.77
2022-11-15T05:36:03.862Z,25.65
2022-11-15T05:38:30.235Z,25.85
2022-11-15T05:40:56.516Z,27.60
2022-11-15T05:43:23.183Z,26.92
2022-11-15T05:45:49.520Z,26.92
2022-11-15T05:48:16.012Z,26.20
2022-11-15T05:50:43.752Z,27.20
2022-11-15T05:53:11.969Z,27.85
2022-11-15T05:55:39.920Z,26.98
2022-11-15T05:58:06.350Z,26.30
2022-11-15T06:00:32.661Z,23.85
2022-11-15T06:02:58.992Z,26.77
2022-11-15T06:05:25.269Z,25.15
2022-11-15T06:07:51.569Z,25.40
2022-11-15T06:10:17.904Z,25.60
2022-11-15T06:12:44.173Z,26.35
2022-11-15T06:15:10.786Z,25.75
2022-11-15T06:17:37.156Z,27.33
2022-11-15T06:20:04.349Z,26.35
2022-11-15T06:22:30.636Z,27.05
2022-11-15T06:25:00.191Z,25.42
2022-11-15T06:27:29.171Z,25.42
2022-11-15T06:29:55.512Z,26.70
2022-11-15T06:32:21.786Z,26.73
2022-11-15T06:34:48.065Z,27.58
2022-11-15T06:37:14.317Z,26.02
2022-11-15T06:39:40.860Z,25.48
2022-11-15T06:42:08.898Z,26.88
2022-11-15T06:44:35.180Z,27.10
2022-11-15T06:47:01.459Z,26.17
2022-11-15T06:49:27.826Z,26.85
2022-11-15T06:51:54.092Z,25.63
2022-11-15T06:54:21.732Z,27.13
2022-11-15T06:56:48.010Z,27.17
2022-11-15T06:59:14.307Z,29.25
2022-11-15T07:01:40.866Z,27.60
2022-11-15T07:04:07.313Z,27.98
2022-11-15T07:06:33.642Z,27.08
2022-11-15T07:08:59.918Z,26.52
2022-11-15T07:11:26.203Z,25.73
2022-11-15T07:13:52.498Z,25.83
2022-11-15T07:16:18.763Z,25.48
2022-11-15T07:18:45.225Z,26.80
2022-11-15T07:21:12.825Z,26.98
2022-11-15T07:23:39.937Z,25.85
2022-11-15T07:26:06.484Z,24.65
2022-11-15T07:28:33.215Z,25.52
2022-11-15T07:31:02.752Z,25.88
2022-11-15T07:33:29.326Z,25.35
2022-11-15T07:35:59.146Z,25.02
2022-11-15T07:38:25.418Z,24.02
2022-11-15T07:40:57.175Z,24.10
2022-11-15T07:43:23.478Z,24.25
2022-11-15T07:45:52.379Z,24.13
2022-11-15T07:48:21.010Z,24.00
2022-11-15T07:50:47.320Z,23.30
2022-11-15T07:53:13.618Z,23.70
2022-11-15T07:55:41.068Z,21.45
2022-11-15T07:58:09.233Z,22.20
2022-11-15T08:00:35.602Z,23.50
2022-11-15T08:03:02.699Z,23.48
2022-11-15T08:05:28.949Z,21.25
2022-11-15T08:07:58.287Z,21.40
2022-11-15T08:10:25.091Z,20.83
2022-11-15T08:13:17.901Z,20.90
2022-11-15T08:15:44.717Z,20.83
2022-11-15T08:18:13.062Z,20.60
2022-11-15T08:20:39.430Z,22.08
2022-11-15T08:23:06.207Z,20.85
2022-11-15T08:25:33.308Z,21.60
2022-11-15T08:28:01.064Z,21.35
2022-11-15T08:30:27.996Z,21.05
2022-11-15T08:32:54.756Z,20.80
2022-11-15T08:35:26.166Z,20.67
2022-11-15T08:37:55.178Z,19.17
2022-11-15T08:40:21.527Z,20.40
2022-11-15T08:42:48.254Z,18.55
2022-11-15T08:45:14.599Z,18.92
2022-11-15T08:47:40.912Z,19.20
2022-11-15T08:50:07.551Z,18.83
2022-11-15T08:52:34.037Z,17.75
2022-11-15T08:55:00.393Z,18.77
2022-11-15T08:57:29.284Z,17.25
2022-11-15T08:59:55.643Z,17.38
2022-11-15T09:02:22.129Z,16.35
2022-11-15T09:04:49.053Z,17.45
2022-11-15T09:07:15.664Z,16.42
2022-11-15T09:09:42.145Z,16.00
2022-11-15T09:12:08.755Z,16.05
2022-11-15T09:14:35.180Z,15.73
2022-11-15T09:17:02.166Z,16.30
2022-11-15T09:19:28.522Z,15.95
2022-11-15T09:21:55.287Z,16.65
2022-11-15T09:24:21.831Z,15.82
2022-11-15T09:26:50.183Z,17.15
2022-11-15T09:29:16.458Z,16.67
2022-11-15T09:31:43.010Z,16.17
2022-11-15T09:34:09.284Z,14.32
2022-11-15T09:36:35.955Z,14.80
2022-11-15T09:39:02.264Z,14.35
2022-11-15T09:41:39.358Z,13.48
2022-11-15T09:44:25.370Z,14.10
2022-11-15T09:46:58.236Z,12.90
2022-11-15T09:49:24.639Z,11.98
2022-11-15T09:51:52.201Z,11.60
2022-11-15T09:54:52.123Z,12.15
2022-11-15T09:57:17.977Z,10.68
2022-11-15T09:59:44.216Z,10.40
2022-11-15T10:02:17.660Z,10.60
2022-11-15T10:04:43.978Z,9.45
2022-11-15T10:07:21.832Z,10.52
2022-11-15T10:09:58.124Z,8.95
2022-11-15T10:12:25.592Z,8.65
2022-11-15T10:14:55.267Z,7.85
2022-11-15T10:17:27.409Z,7.55
2022-11-15T10:20:02.389Z,7.50
2022-11-15T10:22:31.484Z,7.05
2022-11-15T10:25:11.107Z,6.95
2022-11-15T10:27:37.386Z,6.10
2022-11-15T10:30:05.147Z,6.45
2022-11-15T10:32:33.812Z,6.13
2022-11-15T10:35:00.086Z,5.55
2022-11-15T10:37:30.495Z,6.10
2022-11-15T10:40:19.920Z,5.78
2022-11-15T10:42:46.685Z,5.03
2022-11-15T10:45:26.621Z,4.97
2022-11-15T10:47:52.910Z,4.40
2022-11-15T10:50:32.559Z,4.30
2022-11-15T10:52:59.526Z,4.38
2022-11-15T10:55:27.622Z,3.88
2022-11-15T10:57:55.984Z,3.58
2022-11-15T11:00:22.207Z,4.05
2022-11-15T11:02:57.769Z,4.00
2022-11-15T11:07:55.990Z,3.58
2022-11-15T11:10:49.649Z,3.67
2022-11-15T11:13:25.751Z,4.00
2022-11-15T11:16:07.358Z,3.05
2022-11-15T11:18:53.987Z,4.07
2022-11-15T11:21:31.966Z,3.83
2022-11-15T11:24:13.124Z,4.10
2022-11-15T11:26:42.386Z,3.55
2022-11-15T11:29:21.473Z,3.42
2022-11-15T11:31:55.568Z,3.30
2022-11-15T11:34:38.757Z,4.43
2022-11-15T11:37:11.017Z,3.08
2022-11-15T11:39:46.589Z,2.97
2022-11-15T11:44:51.461Z,3.35
2022-11-15T11:47:38.416Z,3.60
2022-11-15T11:50:14.275Z,3.20
2022-11-15T11:52:44.164Z,2.67
2022-11-15T11:55:45.796Z,2.60
2022-11-15T11:58:31.272Z,2.95
2022-11-15T12:01:12.427Z,2.85
2022-11-15T12:03:44.628Z,2.55
2022-11-15T12:06:19.883Z,2.50
2022-11-15T12:08:49.886Z,2.20
2022-11-15T12:11:23.512Z,1.90
2022-11-15T12:13:51.678Z,2.88
2022-11-15T12:16:20.695Z,2.40
2022-11-15T12:18:49.929Z,1.92
2022-11-15T12:21:35.058Z,1.85
2022-11-15T12:24:07.882Z,1.55
2022-11-15T12:26:37.567Z,1.30
2022-11-15T12:29:16.719Z,2.53
2022-11-15T12:31:45.724Z,1.50
2022-11-15T12:34:21.153Z,1.70
2022-11-15T12:36:48.022Z,1.60
2022-11-15T12:39:14.930Z,1.25
2022-11-15T12:41:43.044Z,1.27
2022-11-15T12:44:13.677Z,1.40
2022-11-15T12:46:39.907Z,1.42
2022-11-15T12:49:13.008Z,1.45
2022-11-15T12:51:48.523Z,1.75
2022-11-15T12:56:41.403Z,1.05
2022-11-15T12:59:08.050Z,1.42
2022-11-15T13:01:34.928Z,1.17
2022-11-15T13:04:15.431Z,1.63
2022-11-15T13:06:46.329Z,1.23
2022-11-15T13:09:30.858Z,1.15
2022-11-15T13:11:57.858Z,1.02
2022-11-15T13:14:36.224Z,1.48
2022-11-15T13:17:02.577Z,1.85
2022-11-15T13:19:29.515Z,1.35
2022-11-15T13:22:14.660Z,1.33
2022-11-15T13:24:41.115Z,1.75
2022-11-15T13:27:13.717Z,1.35
2022-11-15T13:29:43.947Z,1.70
2022-11-15T13:32:16.871Z,1.60
2022-11-15T13:34:53.768Z,1.77
2022-11-15T13:37:23.214Z,1.67
2022-11-15T13:39:50.248Z,1.83
2022-11-15T13:42:20.893Z,1.60
2022-11-15T13:44:57.926Z,1.42
2022-11-15T13:47:27.749Z,2.20
2022-11-15T13:49:54.284Z,1.95
2022-11-15T13:52:21.654Z,1.92
2022-11-15T13:55:11.308Z,1.98
2022-11-15T13:57:41.068Z,1.30
2022-11-15T14:00:23.532Z,2.13
2022-11-15T14:02:49.781Z,1.45
2022-11-15T14:05:23.037Z,1.80
2022-11-15T14:07:59.652Z,1.70
2022-11-15T14:10:30.624Z,1.90
2022-11-15T14:12:57.161Z,1.65
2022-11-15T14:15:31.140Z,1.83
2022-11-15T14:17:57.628Z,1.77
2022-11-15T14:20:26.663Z,1.73
2022-11-15T14:22:56.905Z,2.60
2022-11-15T14:25:24.212Z,3.25
2022-11-15T14:28:08.859Z,2.28
2022-11-15T14:30:35.257Z,1.65
2022-11-15T14:33:01.800Z,1.65
2022-11-15T14:35:28.275Z,1.67
2022-11-15T14:37:54.527Z,1.60
2022-11-15T14:40:21.787Z,1.85
2022-11-15T14:42:49.143Z,3.13
2022-11-15T14:45:16.978Z,1.45
2022-11-15T14:47:43.658Z,1.40
2022-11-15T14:50:14.258Z,1.50
2022-11-15T14:52:41.125Z,1.58
2022-11-15T14:55:28.548Z,1.10
2022-11-15T14:57:55.376Z,1.48
2022-11-15T15:00:22.074Z,1.52
2022-11-15T15:02:49.276Z,1.27
2022-11-15T15:05:17.010Z,1.38
2022-11-15T15:07:43.954Z,1.33
2022-11-15T15:10:39.449Z,1.45
2022-11-15T15:12:56.802Z,1.55
2022-11-15T15:15:26.216Z,1.75
2022-11-15T15:17:52.546Z,1.20
2022-11-15T15:20:19.090Z,1.42
2022-11-15T15:22:45.765Z,1.30
2022-11-15T15:25:22.376Z,1.50
2022-11-15T15:27:48.819Z,1.00
2022-11-15T15:30:15.170Z,1.20
2022-11-15T15:32:41.492Z,1.48
2022-11-15T15:35:12.332Z,1.63
2022-11-15T15:37:39.471Z,1.10
2022-11-15T15:40:11.137Z,1.23
2022-11-15T15:42:37.403Z,1.10
2022-11-15T15:45:03.899Z,1.70
2022-11-15T15:47:30.224Z,1.25
2022-11-15T15:49:56.521Z,1.50
2022-11-15T15:52:22.800Z,0.93
2022-11-15T15:54:49.068Z,1.45
2022-11-15T15:57:15.393Z,1.50
2022-11-15T15:59:43.233Z,1.27
2022-11-15T16:02:13.302Z,1.30
2022-11-15T16:04:40.344Z,1.73
2022-11-15T16:07:07.133Z,1.40
2022-11-15T16:09:52.226Z,1.20
2022-11-15T16:12:18.635Z,1.60
2022-11-15T16:14:44.963Z,1.38
2022-11-15T16:17:22.162Z,2.25
2022-11-15T16:19:48.491Z,1.15
2022-11-15T16:22:14.812Z,1.98
2022-11-15T16:24:41.160Z,1.40
2022-11-15T16:27:13.323Z,1.52
2022-11-15T16:29:39.595Z,1.45
2022-11-15T16:32:05.880Z,1.70
2022-11-15T16:34:36.037Z,1.75
2022-11-15T16:37:05.498Z,1.50
2022-11-15T16:39:32.351Z,1.77
2022-11-15T16:41:58.904Z,2.05
2022-11-15T16:44:25.210Z,1.52
2022-11-15T16:46:54.320Z,1.38
2022-11-15T16:49:21.168Z,1.30
2022-11-15T16:51:50.771Z,2.00
2022-11-15T16:54:17.599Z,1.55
2022-11-15T16:56:43.939Z,1.50
2022-11-15T16:59:14.673Z,1.80
2022-11-15T17:01:50.479Z,1.58
2022-11-15T17:04:18.089Z,1.55
2022-11-15T17:06:44.944Z,1.65
2022-11-15T17:09:12.576Z,1.83
2022-11-15T17:11:40.569Z,1.75
2022-11-15T17:14:06.964Z,2.47
2022-11-15T17:16:34.216Z,1.92
2022-11-15T17:19:01.820Z,1.33
2022-11-15T17:21:32.603Z,1.58
2022-11-15T17:24:00.205Z,1.77
2022-11-15T17:26:32.988Z,2.13
2022-11-15T17:29:01.682Z,1.70
2022-11-15T17:31:30.123Z,1.80
2022-11-15T17:33:56.747Z,2.30
2022-11-15T17:36:23.026Z,1.67
2022-11-15T17:38:56.571Z,2.03
2022-11-15T17:41:25.601Z,2.10
2022-11-15T17:43:51.901Z,2.20
2022-11-15T17:46:20.916Z,1.92
2022-11-15T17:48:47.702Z,2.08
2022-11-15T17:51:15.081Z,1.95
2022-11-15T17:53:43.240Z,2.50
2022-11-15T17:56:13.691Z,2.15
2022-11-15T17:58:40.372Z,2.58
2022-11-15T18:01:12.647Z,2.13
2022-11-15T18:03:39.129Z,2.53
2022-11-15T18:06:06.242Z,3.10
2022-11-15T18:08:33.185Z,2.70
2022-11-15T18:11:07.699Z,3.03
2022-11-15T18:13:37.643Z,3.20
2022-11-15T18:16:04.707Z,2.97
2022-11-15T18:18:32.177Z,2.78
2022-11-15T18:21:05.732Z,3.97
2022-11-15T18:23:32.877Z,4.00
2022-11-15T18:25:59.727Z,2.90
2022-11-15T18:28:30.533Z,3.83
2022-11-15T18:30:58.144Z,3.80
2022-11-15T18:33:24.473Z,3.05
2022-11-15T18:35:50.792Z,3.28
2022-11-15T18:38:17.298Z,3.83
2022-11-15T18:40:43.539Z,3.65
2022-11-15T18:43:09.791Z,3.33
2022-11-15T18:45:36.055Z,3.58
2022-11-15T18:48:02.337Z,3.53
2022-11-15T18:50:28.869Z,3.45
2022-11-15T18:52:55.118Z,4.47
2022-11-15T18:55:21.375Z,4.30
2022-11-15T18:57:47.653Z,3.63
2022-11-15T19:00:14.339Z,4.35
2022-11-15T19:02:40.878Z,3.95
2022-11-15T19:05:07.570Z,3.92
2022-11-15T19:07:33.934Z,4.53
2022-11-15T19:10:00.256Z,4.40
2022-11-15T19:12:27.993Z,4.65
2022-11-15T19:14:54.273Z,4.88
2022-11-15T19:17:20.587Z,3.97
2022-11-15T19:19:46.893Z,4.78
2022-11-15T19:22:13.443Z,5.30
2022-11-15T19:24:39.711Z,4.85
2022-11-15T19:27:05.987Z,4.68
2022-11-15T19:29:32.229Z,5.22
2022-11-15T19:31:58.493Z,5.18
2022-11-15T19:34:24.723Z,4.80
2022-11-15T19:36:51.159Z,4.75
2022-11-15T19:39:18.398Z,5.47
2022-11-15T19:41:44.998Z,5.88
2022-11-15T19:44:12.432Z,5.90
2022-11-15T19:46:39.383Z,5.72
2022-11-15T19:49:07.865Z,5.80
2022-11-15T19:51:34.282Z,5.90
2022-11-15T19:54:03.551Z,6.18
2022-11-15T19:56:29.816Z,7.03
2022-11-15T19:58:56.556Z,5.80
2022-11-15T20:01:24.560Z,5.45
2022-11-15T20:03:53.424Z,5.20
2022-11-15T20:06:20.950Z,5.75
2022-11-15T20:08:47.973Z,6.55
2022-11-15T20:11:14.905Z,6.97
2022-11-15T20:13:42.393Z,6.50
2022-11-15T20:16:09.189Z,7.00
2022-11-15T20:18:36.878Z,5.88
2022-11-15T20:21:06.207Z,6.95
2022-11-15T20:23:32.457Z,6.57
2022-11-15T20:25:58.733Z,7.05
2022-11-15T20:28:26.255Z,7.43
2022-11-15T20:30:53.627Z,6.63
2022-11-15T20:33:20.008Z,7.10
2022-11-15T20:35:46.341Z,7.55
2022-11-15T20:38:12.641Z,7.55
2022-11-15T20:40:39.345Z,8.60
2022-11-15T20:43:05.924Z,9.02
2022-11-15T20:45:32.201Z,8.00
2022-11-15T20:47:58.738Z,8.52
2022-11-15T20:50:42.012Z,8.57
2022-11-15T20:53:10.271Z,7.88
2022-11-15T20:55:43.610Z,8.40
2022-11-15T20:58:10.410Z,8.32
2022-11-15T21:00:38.554Z,7.90
2022-11-15T21:03:08.392Z,9.20
2022-11-15T21:05:35.107Z,9.18
2022-11-15T21:08:03.645Z,10.50
2022-11-15T21:10:48.330Z,9.73
2022-11-15T21:13:14.664Z,9.23
2022-11-15T21:15:41.504Z,9.88
2022-11-15T21:18:08.130Z,10.00
2022-11-15T21:20:34.515Z,10.38
2022-11-15T21:23:00.776Z,9.45
2022-11-15T21:25:27.104Z,10.02
2022-11-15T21:27:53.406Z,9.80
2022-11-15T21:30:19.640Z,10.25
2022-11-15T21:32:45.896Z,11.73
2022-11-15T21:35:12.567Z,11.40
2022-11-15T21:37:38.839Z,11.45
2022-11-15T21:40:05.558Z,11.43
2022-11-15T21:42:31.851Z,11.40
2022-11-15T21:44:58.119Z,11.55
2022-11-15T21:47:24.358Z,11.20
2022-11-15T21:49:50.631Z,11.93
2022-11-15T21:52:16.926Z,12.82
2022-11-15T21:54:44.470Z,13.20
2022-11-15T21:57:11.338Z,12.98
2022-11-15T22:00:00.592Z,13.18
2022-11-15T22:02:26.844Z,11.50
2022-11-15T22:04:54.138Z,12.52
2022-11-15T22:07:20.545Z,13.10
2022-11-15T22:09:46.848Z,11.63
2022-11-15T22:12:13.540Z,12.57
2022-11-15T22:14:39.803Z,12.75
2022-11-15T22:17:06.049Z,12.38
2022-11-15T22:19:32.351Z,12.35
2022-11-15T22:21:58.632Z,12.27
2022-11-15T22:24:25.186Z,12.10
2022-11-15T22:26:51.414Z,12.18
2022-11-15T22:29:17.707Z,12.45
2022-11-15T22:31:43.974Z,11.13
2022-11-15T22:34:10.323Z,12.23
2022-11-15T22:36:58.433Z,12.65
2022-11-15T22:39:22.879Z,11.38
2022-11-15T22:41:49.167Z,11.73
2022-11-15T22:44:15.463Z,11.93
2022-11-15T22:46:41.789Z,11.38
2022-11-15T22:49:09.141Z,11.13
2022-11-15T22:51:35.632Z,11.70
2022-11-15T22:54:01.923Z,11.35
2022-11-15T22:56:28.178Z,11.60
2022-11-15T22:58:54.413Z,11.77
2022-11-15T23:01:21.775Z,11.18
2022-11-15T23:03:48.102Z,11.23
2022-11-15T23:06:14.393Z,12.23
2022-11-15T23:08:40.972Z,10.85
2022-11-15T23:11:28.031Z,11.63
2022-11-15T23:13:54.299Z,11.00
2022-11-15T23:16:23.984Z,11.55
2022-11-15T23:18:51.674Z,12.55
2022-11-15T23:21:39.425Z,11.65
2022-11-15T23:24:06.156Z,13.02
2022-11-15T23:26:32.825Z,11.20
2022-11-15T23:28:59.199Z,11.90
2022-11-15T23:31:44.125Z,12.48
2022-11-15T23:34:11.423Z,12.35
2022-11-15T23:36:37.727Z,11.88
2022-11-15T23:39:04.172Z,12.98
2022-11-15T23:41:30.415Z,12.68
2022-11-15T23:43:56.674Z,12.40
2022-11-15T23:46:23.057Z,11.27
2022-11-15T23:48:49.302Z,11.65
2022-11-15T23:51:15.619Z,12.77
2022-11-15T23:53:43.461Z,12.30
2022-11-15T23:56:11.445Z,13.52
2022-11-15T23:58:37.775Z,12.82
